createdAt,value
2022-12-12T00:10:00.687Z,97825.22
2022-12-12T00:15:36.643Z,97838.84
2022-12-12T00:21:40.141Z,97834.25
2022-12-12T00:27:11.680Z,97835.06
2022-12-12T00:35:09.353Z,97848.28
2022-12-12T00:46:23.334Z,97858.09
2022-12-12T00:49:11.820Z,97850.00
2022-12-12T01:06:08.294Z,97833.69
2022-12-12T01:11:23.991Z,97841.31
2022-12-12T01:19:40.511Z,97847.50
2022-12-12T01:22:12.633Z,97845.22
2022-12-12T01:24:42.813Z,97845.09
2022-12-12T01:37:58.925Z,97847.78
2022-12-12T01:40:45.735Z,97840.97
2022-12-12T01:46:34.850Z,97843.84
2022-12-12T01:49:29.876Z,97845.47
2022-12-12T01:52:11.196Z,97845.69
2022-12-12T02:00:41.246Z,97834.94
2022-12-12T02:03:10.649Z,97839.09
2022-12-12T02:06:00.331Z,97834.97
2022-12-12T02:08:29.062Z,97840.94
2022-12-12T02:13:46.666Z,97850.88
2022-12-12T02:16:48.822Z,97841.97
2022-12-12T02:22:39.958Z,97854.19
2022-12-12T02:25:41.523Z,97849.41
2022-12-12T02:28:24.519Z,97843.03
2022-12-12T02:31:25.986Z,97846.13
2022-12-12T02:34:29.562Z,97842.00
2022-12-12T02:37:30.060Z,97843.22
2022-12-12T02:40:34.974Z,97834.13
2022-12-12T02:43:24.851Z,97829.59
2022-12-12T02:46:12.570Z,97832.69
2022-12-12T02:48:50.342Z,97846.72
2022-12-12T02:51:19.999Z,97837.44
2022-12-12T02:53:48.272Z,97844.03
2022-12-12T02:56:49.163Z,97846.13
2022-12-12T02:59:32.834Z,97833.09
2022-12-12T03:02:32.554Z,97834.56
2022-12-12T03:11:07.480Z,97845.50
2022-12-12T03:13:59.285Z,97824.03
2022-12-12T03:19:24.004Z,97840.75
2022-12-12T03:22:12.656Z,97844.06
2022-12-12T03:25:03.588Z,97827.75
2022-12-12T03:28:20.407Z,97836.22
2022-12-12T03:33:40.488Z,97833.31
2022-12-12T03:36:41.199Z,97842.41
2022-12-12T03:39:41.120Z,97829.59
2022-12-12T03:42:32.990Z,97829.19
2022-12-12T03:45:16.302Z,97837.03
2022-12-12T03:48:01.186Z,97846.97
2022-12-12T03:50:45.201Z,97836.84
2022-12-12T03:53:17.994Z,97844.47
2022-12-12T03:56:07.745Z,97838.91
2022-12-12T03:59:03.662Z,97847.38
2022-12-12T04:02:22.143Z,97847.78
2022-12-12T04:05:01.047Z,97837.44
2022-12-12T04:07:38.274Z,97844.69
2022-12-12T04:10:25.983Z,97843.03
2022-12-12T04:13:14.641Z,97856.84
2022-12-12T04:16:03.190Z,97853.97
2022-12-12T04:18:56.368Z,97855.63
2022-12-12T04:22:00.407Z,97859.13
2022-12-12T04:24:46.859Z,97860.81
2022-12-12T04:27:30.051Z,97856.25
2022-12-12T04:30:13.133Z,97843.84
2022-12-12T04:32:51.185Z,97845.31
2022-12-12T04:35:34.864Z,97853.56
2022-12-12T04:38:10.399Z,97849.41
2022-12-12T04:40:52.369Z,97848.81
2022-12-12T04:43:34.845Z,97851.28
2022-12-12T04:46:17.368Z,97860.59
2022-12-12T04:48:53.956Z,97849.66
2022-12-12T04:51:33.913Z,97861.41
2022-12-12T04:54:25.394Z,97860.19
2022-12-12T04:56:59.088Z,97866.38
2022-12-12T04:59:27.235Z,97862.44
2022-12-12T05:02:00.464Z,97864.09
2022-12-12T05:04:42.037Z,97869.28
2022-12-12T05:07:18.060Z,97869.47
2022-12-12T05:09:45.580Z,97867.00
2022-12-12T05:12:14.872Z,97864.94
2022-12-12T05:14:42.207Z,97864.50
2022-12-12T05:17:16.985Z,97861.84
2022-12-12T05:19:44.185Z,97871.13
2022-12-12T05:22:11.857Z,97880.41
2022-12-12T05:31:31.544Z,97873.38
2022-12-12T05:34:19.447Z,97879.16
2022-12-12T05:37:05.356Z,97878.97
2022-12-12T05:39:39.807Z,97877.53
2022-12-12T05:44:59.194Z,97886.41
2022-12-12T05:47:27.773Z,97879.16
2022-12-12T05:49:57.878Z,97872.59
2022-12-12T05:52:29.730Z,97881.03
2022-12-12T05:55:02.374Z,97876.28
2022-12-12T05:58:41.200Z,97878.38
2022-12-12T06:01:17.978Z,97877.50
2022-12-12T06:06:52.048Z,97875.03
2022-12-12T06:09:26.267Z,97884.13
2022-12-12T06:11:57.018Z,97886.38
2022-12-12T06:14:41.116Z,97888.25
2022-12-12T06:20:00.127Z,97881.84
2022-12-12T06:25:14.477Z,97891.34
2022-12-12T06:27:46.871Z,97901.47
2022-12-12T06:30:26.938Z,97905.59
2022-12-12T06:32:55.698Z,97895.66
2022-12-12T06:35:23.456Z,97903.94
2022-12-12T06:37:52.339Z,97900.88
2022-12-12T06:40:20.883Z,97902.72
2022-12-12T06:48:13.134Z,97911.81
2022-12-12T06:50:42.394Z,97918.22
2022-12-12T06:55:57.192Z,97918.22
2022-12-12T07:04:19.561Z,97900.22
2022-12-12T07:09:47.145Z,97905.19
2022-12-12T07:14:55.180Z,97908.28
2022-12-12T07:33:59.336Z,97929.16
2022-12-12T08:12:58.813Z,97950.84
2022-12-12T08:15:27.483Z,97950.03
2022-12-12T08:18:02.645Z,97951.06
2022-12-12T08:36:58.537Z,97967.41
2022-12-12T08:45:08.489Z,97986.19
2022-12-12T08:47:40.876Z,97981.84
2022-12-12T08:50:15.696Z,97985.13
2022-12-12T08:55:33.898Z,97994.25
2022-12-12T08:58:01.164Z,97993.41
2022-12-12T09:00:42.558Z,97985.13
2022-12-12T09:03:10.948Z,97999.19
2022-12-12T09:05:51.583Z,98001.06
2022-12-12T09:08:21.387Z,97996.50
2022-12-12T09:10:55.436Z,97994.47
2022-12-12T09:13:23.066Z,97995.91
2022-12-12T09:15:57.270Z,98002.72
2022-12-12T09:18:28.451Z,98001.31
2022-12-12T09:20:59.327Z,98004.59
2022-12-12T09:26:10.751Z,98002.16
2022-12-12T09:28:42.145Z,97996.97
2022-12-12T09:31:14.766Z,98001.94
2022-12-12T09:43:01.438Z,98005.28
2022-12-12T10:21:38.942Z,98020.97
2022-12-12T10:24:21.329Z,98013.94
2022-12-12T10:26:56.576Z,98010.00
2022-12-12T10:29:39.665Z,98010.84
2022-12-12T10:32:34.645Z,98023.47
2022-12-12T10:35:26.131Z,98025.09
2022-12-12T10:38:35.090Z,98018.28
2022-12-12T10:41:16.543Z,98027.59
2022-12-12T11:13:16.120Z,98020.81
2022-12-12T11:16:24.769Z,98023.44
2022-12-12T11:19:24.237Z,98022.22
2022-12-12T11:24:53.771Z,98022.84
2022-12-12T11:33:32.638Z,98028.03
2022-12-12T11:36:09.057Z,98020.97
2022-12-12T11:38:55.523Z,98028.44
2022-12-12T11:41:25.260Z,98041.69
2022-12-12T12:01:29.533Z,98031.69
2022-12-12T12:04:28.279Z,98042.28
2022-12-12T12:10:43.499Z,98055.13
2022-12-12T12:13:39.566Z,98047.25
2022-12-12T12:16:22.227Z,98044.75
2022-12-12T12:19:42.793Z,98041.88
2022-12-12T12:22:50.410Z,98047.88
2022-12-12T12:25:44.479Z,98049.94
2022-12-12T12:39:03.762Z,98047.03
2022-12-12T12:41:45.897Z,98045.16
2022-12-12T12:44:51.059Z,98041.47
2022-12-12T12:48:10.580Z,98027.41
2022-12-12T12:50:57.119Z,98029.28
2022-12-12T12:56:26.335Z,98023.28
2022-12-12T13:01:41.477Z,98045.22
2022-12-12T13:06:45.246Z,98050.59
2022-12-12T13:12:22.683Z,98036.53
2022-12-12T13:15:30.956Z,98044.78
2022-12-12T13:21:33.971Z,98043.97
2022-12-12T13:24:20.883Z,98037.75
2022-12-12T13:27:17.447Z,98052.06
2022-12-12T13:30:21.927Z,98053.06
2022-12-12T13:41:15.244Z,98047.88
2022-12-12T13:43:57.432Z,98043.75
2022-12-12T13:46:28.135Z,98054.50
2022-12-12T13:49:07.645Z,98066.31
2022-12-12T13:51:44.855Z,98063.38
2022-12-12T13:54:14.119Z,98066.31
2022-12-12T13:56:53.944Z,98068.78
2022-12-12T13:59:33.666Z,98067.09
2022-12-12T14:02:35.017Z,98053.88
2022-12-12T14:05:38.042Z,98058.00
2022-12-12T14:08:12.690Z,98079.94
2022-12-12T14:18:59.930Z,98080.13
2022-12-12T14:44:36.963Z,98085.28
2022-12-12T14:47:11.442Z,98089.63
2022-12-12T14:49:50.074Z,98101.59
2022-12-12T14:52:31.748Z,98095.81
2022-12-12T14:55:02.117Z,98102.84
2022-12-12T14:57:32.865Z,98093.97
2022-12-12T15:00:03.451Z,98098.50
2022-12-12T15:02:42.075Z,98099.75
2022-12-12T15:05:13.533Z,98100.38
2022-12-12T15:07:42.040Z,98108.44
2022-12-12T15:10:31.002Z,98102.25
2022-12-12T15:13:02.707Z,98105.13
2022-12-12T15:15:34.554Z,98106.38
2022-12-12T15:18:03.402Z,98114.44
2022-12-12T15:20:33.694Z,98107.78
2022-12-12T15:23:07.693Z,98120.41
2022-12-12T15:25:55.146Z,98122.25
2022-12-12T15:28:25.257Z,98118.13
2022-12-12T15:30:56.149Z,98119.81
2022-12-12T15:33:26.808Z,98122.28
2022-12-12T15:36:02.987Z,98125.19
2022-12-12T15:38:32.500Z,98114.63
2022-12-12T15:41:09.558Z,98132.19
2022-12-12T15:43:40.856Z,98130.97
2022-12-12T15:46:16.297Z,98116.06
2022-12-12T15:48:49.998Z,98126.22
2022-12-12T15:51:24.710Z,98129.13
2022-12-12T15:53:55.581Z,98125.56
2022-12-12T15:56:28.011Z,98134.25
2022-12-12T15:59:04.136Z,98128.06
2022-12-12T16:01:32.063Z,98124.94
2022-12-12T16:04:10.470Z,98127.22
2022-12-12T16:06:43.387Z,98117.31
2022-12-12T16:09:10.616Z,98125.56
2022-12-12T16:11:58.949Z,98118.69
2022-12-12T16:14:43.611Z,98130.69
2022-12-12T16:17:18.449Z,98136.47
2022-12-12T16:20:04.945Z,98133.81
2022-12-12T16:22:42.682Z,98137.31
2022-12-12T16:25:27.549Z,98134.81
2022-12-12T16:28:10.135Z,98140.00
2022-12-12T16:30:43.156Z,98150.75
2022-12-12T16:33:34.327Z,98146.22
2022-12-12T16:36:06.081Z,98150.34
2022-12-12T16:38:34.186Z,98145.38
2022-12-12T16:41:10.863Z,98148.50
2022-12-12T16:43:40.179Z,98149.31
2022-12-12T16:46:21.808Z,98156.78
2022-12-12T16:48:50.697Z,98144.78
2022-12-12T16:51:31.349Z,98160.72
2022-12-12T16:54:00.143Z,98139.00
2022-12-12T16:56:29.453Z,98152.44
2022-12-12T16:58:58.028Z,98159.88
2022-12-12T17:01:26.067Z,98153.06
2022-12-12T17:03:56.209Z,98159.06
2022-12-12T17:09:00.491Z,98170.44
2022-12-12T17:11:34.209Z,98175.41
2022-12-12T17:14:08.869Z,98165.25
2022-12-12T17:16:39.184Z,98170.41
2022-12-12T17:19:08.860Z,98172.50
2022-12-12T17:21:37.824Z,98162.81
2022-12-12T17:24:05.892Z,98167.53
2022-12-12T17:26:34.072Z,98191.31
2022-12-12T17:29:03.052Z,98178.91
2022-12-12T17:31:31.014Z,98172.47
2022-12-12T17:34:00.631Z,98191.53
2022-12-12T17:36:28.534Z,98186.53
2022-12-12T17:38:58.982Z,98184.44
2022-12-12T17:44:12.381Z,98192.53
2022-12-12T17:46:41.686Z,98189.44
2022-12-12T17:49:09.332Z,98198.13
2022-12-12T17:51:38.805Z,98192.75
2022-12-12T17:54:07.288Z,98198.75
2022-12-12T17:56:36.276Z,98199.00
2022-12-12T17:59:06.245Z,98207.06
2022-12-12T18:01:34.361Z,98202.47
2022-12-12T18:04:04.845Z,98213.63
2022-12-12T18:06:35.394Z,98206.41
2022-12-12T18:09:05.295Z,98212.63
2022-12-12T18:11:36.963Z,98215.50
2022-12-12T18:14:09.349Z,98214.28
2022-12-12T18:16:38.225Z,98225.66
2022-12-12T18:19:05.664Z,98220.69
2022-12-12T18:24:24.867Z,98227.13
2022-12-12T18:26:59.299Z,98231.44
2022-12-12T18:29:29.358Z,98232.50
2022-12-12T18:31:58.774Z,98228.56
2022-12-12T18:34:27.311Z,98232.88
2022-12-12T18:36:57.703Z,98235.56
2022-12-12T18:39:26.762Z,98234.13
2022-12-12T18:41:54.122Z,98234.94
2022-12-12T18:44:22.842Z,98251.25
2022-12-12T18:46:52.531Z,98252.09
2022-12-12T18:49:20.571Z,98244.88
2022-12-12T18:51:50.743Z,98259.31
2022-12-12T18:54:19.383Z,98258.72
2022-12-12T18:56:48.607Z,98268.88
2022-12-12T18:59:19.386Z,98276.31
2022-12-12T19:01:50.875Z,98263.25
2022-12-12T19:04:23.413Z,98266.78
2022-12-12T19:06:53.092Z,98275.84
2022-12-12T19:09:21.932Z,98284.16
2022-12-12T19:11:50.465Z,98291.16
2022-12-12T19:14:18.446Z,98284.75
2022-12-12T19:16:47.241Z,98292.22
2022-12-12T19:19:16.005Z,98295.94
2022-12-12T19:21:44.768Z,98284.75
2022-12-12T19:24:12.796Z,98303.81
2022-12-12T19:26:44.013Z,98288.63
2022-12-12T19:29:16.640Z,98301.72
2022-12-12T19:31:45.114Z,98304.22
2022-12-12T19:34:14.678Z,98304.22
2022-12-12T19:36:43.882Z,98320.97
2022-12-12T19:39:12.996Z,98325.75
2022-12-12T19:41:41.099Z,98324.50
2022-12-12T19:44:14.500Z,98333.41
2022-12-12T19:46:46.440Z,98339.19
2022-12-12T19:49:17.074Z,98344.00
2022-12-12T19:51:47.087Z,98337.34
2022-12-12T19:54:20.152Z,98346.28
2022-12-12T19:56:52.284Z,98346.69
2022-12-12T19:59:21.192Z,98349.13
2022-12-12T20:01:49.425Z,98359.25
2022-12-12T20:04:23.652Z,98356.56
2022-12-12T20:06:53.208Z,98360.09
2022-12-12T20:14:43.130Z,98361.69
2022-12-12T20:17:11.247Z,98360.03
2022-12-12T20:19:39.312Z,98360.03
2022-12-12T20:22:11.342Z,98364.78
2022-12-12T20:24:42.554Z,98362.94
2022-12-12T20:27:12.460Z,98361.44
2022-12-12T20:29:40.370Z,98374.13
2022-12-12T20:32:08.708Z,98381.13
2022-12-12T20:37:21.833Z,98381.00
2022-12-12T20:39:49.834Z,98381.19
2022-12-12T20:42:17.350Z,98379.78
2022-12-12T20:44:44.919Z,98391.59
2022-12-12T20:47:17.205Z,98384.56
2022-12-12T20:49:44.701Z,98388.50
2022-12-12T20:52:12.336Z,98390.97
2022-12-12T20:54:39.780Z,98394.50
2022-12-12T20:57:07.635Z,98400.97
2022-12-12T20:59:35.249Z,98401.63
2022-12-12T21:02:02.885Z,98397.66
2022-12-12T21:04:32.085Z,98405.09
2022-12-12T21:07:00.731Z,98416.09
2022-12-12T21:09:28.760Z,98414.44
2022-12-12T21:11:58.672Z,98416.75
2022-12-12T21:14:28.681Z,98420.72
2022-12-12T21:16:56.598Z,98418.84
2022-12-12T21:19:24.591Z,98427.94
2022-12-12T21:21:52.515Z,98424.19
2022-12-12T21:24:20.915Z,98429.56
2022-12-12T21:26:49.357Z,98437.88
2022-12-12T21:29:17.342Z,98429.56
2022-12-12T21:31:51.065Z,98433.50
2022-12-12T21:34:21.661Z,98433.91
2022-12-12T21:36:54.781Z,98425.19
2022-12-12T21:39:28.883Z,98432.69
2022-12-12T21:41:57.147Z,98434.09
2022-12-12T21:44:25.875Z,98441.97
2022-12-12T21:46:54.597Z,98439.28
2022-12-12T21:49:32.005Z,98436.78
2022-12-12T21:52:02.837Z,98433.88
2022-12-12T21:54:32.419Z,98437.19
2022-12-12T21:57:01.974Z,98434.91
2022-12-12T21:59:30.278Z,98420.13
2022-12-12T22:02:00.776Z,98434.00
2022-12-12T22:04:32.257Z,98443.75
2022-12-12T22:07:01.771Z,98444.56
2022-12-12T22:09:31.158Z,98437.75
2022-12-12T22:12:03.582Z,98433.38
2022-12-12T22:14:33.715Z,98436.91
2022-12-12T22:17:03.251Z,98445.81
2022-12-12T22:19:32.617Z,98453.28
2022-12-12T22:22:01.303Z,98448.94
2022-12-12T22:24:30.149Z,98441.13
2022-12-12T22:27:00.457Z,98449.63
2022-12-12T22:29:28.810Z,98451.47
2022-12-12T22:31:57.133Z,98445.25
2022-12-12T22:34:26.818Z,98462.47
2022-12-12T22:36:55.467Z,98464.75
2022-12-12T22:39:27.743Z,98469.97
2022-12-12T22:41:57.690Z,98465.59
2022-12-12T22:44:27.390Z,98471.59
2022-12-12T22:46:56.938Z,98462.91
2022-12-12T22:49:27.535Z,98472.44
2022-12-12T22:54:43.193Z,98459.38
2022-12-12T22:57:15.142Z,98461.88
2022-12-12T22:59:45.139Z,98464.75
2022-12-12T23:02:23.136Z,98468.47
2022-12-12T23:04:54.636Z,98466.19
2022-12-12T23:10:05.206Z,98483.41
2022-12-12T23:12:34.414Z,98467.28
2022-12-12T23:15:01.962Z,98471.59
2022-12-12T23:17:29.995Z,98482.50
2022-12-12T23:19:57.860Z,98480.06
2022-12-12T23:22:26.292Z,98474.44
2022-12-12T23:24:55.249Z,98475.09
2022-12-12T23:27:23.321Z,98462.84
2022-12-12T23:29:52.107Z,98477.19
2022-12-12T23:32:20.800Z,98478.03
2022-12-12T23:34:49.173Z,98474.88
2022-12-12T23:37:20.511Z,98482.56
2022-12-12T23:39:52.364Z,98483.78
2022-12-12T23:42:20.698Z,98475.53
2022-12-12T23:44:51.150Z,98486.28
2022-12-12T23:47:20.155Z,98481.31
2022-12-12T23:49:48.873Z,98480.66
2022-12-12T23:52:17.992Z,98480.66
2022-12-12T23:54:55.153Z,98477.13
2022-12-12T23:57:24.337Z,98486.88
2022-12-12T23:59:53.466Z,98488.09
